createdAt,value
2017-12-19T00:00:29.859Z,1023.17
2017-12-19T00:01:29.834Z,1023.14
2017-12-19T00:02:29.821Z,1023.15
2017-12-19T00:03:29.799Z,1023.16
2017-12-19T00:04:29.771Z,1023.12
2017-12-19T00:05:29.761Z,1023.17
2017-12-19T00:06:29.726Z,1023.20
2017-12-19T00:07:29.705Z,1023.17
2017-12-19T00:08:29.684Z,1023.17
2017-12-19T00:09:29.663Z,1023.18
2017-12-19T00:10:29.639Z,1023.19
2017-12-19T00:11:29.620Z,1023.22
2017-12-19T00:12:29.601Z,1023.25
2017-12-19T00:13:29.574Z,1023.29
2017-12-19T00:14:29.553Z,1023.31
2017-12-19T00:15:29.530Z,1023.38
2017-12-19T00:16:29.511Z,1023.43
2017-12-19T00:17:29.490Z,1023.42
2017-12-19T00:18:29.474Z,1023.46
2017-12-19T00:19:29.442Z,1023.50
2017-12-19T00:20:29.424Z,1023.45
2017-12-19T00:21:29.400Z,1023.42
2017-12-19T00:22:29.385Z,1023.44
2017-12-19T00:23:29.354Z,1023.45
2017-12-19T00:24:29.337Z,1023.56
2017-12-19T00:25:29.314Z,1023.61
2017-12-19T00:26:29.294Z,1023.54
2017-12-19T00:27:29.272Z,1023.50
2017-12-19T00:28:29.245Z,1023.46
2017-12-19T00:29:29.226Z,1023.46
2017-12-19T00:30:29.204Z,1023.60
2017-12-19T00:31:29.189Z,1023.63
2017-12-19T00:32:29.161Z,1023.68
2017-12-19T00:33:29.139Z,1023.69
2017-12-19T00:34:29.117Z,1023.71
2017-12-19T00:35:29.094Z,1023.70
2017-12-19T00:36:29.078Z,1023.80
2017-12-19T00:37:29.053Z,1023.80
2017-12-19T00:38:29.039Z,1023.79
2017-12-19T00:39:29.006Z,1023.69
2017-12-19T00:40:28.984Z,1023.67
2017-12-19T00:41:28.966Z,1023.69
2017-12-19T00:42:28.943Z,1023.71
2017-12-19T00:43:28.918Z,1023.74
2017-12-19T00:44:28.900Z,1023.76
2017-12-19T00:45:28.881Z,1023.83
2017-12-19T00:46:28.858Z,1023.89
2017-12-19T00:47:28.847Z,1023.91
2017-12-19T00:48:28.815Z,1023.91
2017-12-19T00:49:28.801Z,1023.97
2017-12-19T00:50:28.774Z,1023.95
2017-12-19T00:51:28.750Z,1023.94
2017-12-19T00:52:28.730Z,1023.94
2017-12-19T00:53:28.705Z,1023.96
2017-12-19T00:54:28.691Z,1023.93
2017-12-19T00:55:28.663Z,1023.94
2017-12-19T00:56:28.636Z,1023.95
2017-12-19T00:57:28.620Z,1023.94
2017-12-19T00:58:28.596Z,1023.95
2017-12-19T00:59:28.574Z,1023.92
2017-12-19T01:00:28.553Z,1023.90
2017-12-19T01:01:28.527Z,1023.88
2017-12-19T01:02:28.506Z,1023.86
2017-12-19T01:03:28.488Z,1023.86
2017-12-19T01:04:28.467Z,1023.89
2017-12-19T01:05:28.441Z,1023.90
2017-12-19T01:06:28.419Z,1023.90
2017-12-19T01:07:28.397Z,1023.91
2017-12-19T01:08:28.379Z,1023.94
2017-12-19T01:09:28.350Z,1024.01
2017-12-19T01:10:28.338Z,1024.02
2017-12-19T01:11:28.309Z,1024.05
2017-12-19T01:12:28.288Z,1024.02
2017-12-19T01:13:28.270Z,1024.05
2017-12-19T01:14:28.250Z,1024.08
2017-12-19T01:15:28.282Z,1024.09
2017-12-19T01:16:28.199Z,1024.07
2017-12-19T01:17:28.230Z,1024.08
2017-12-19T01:18:28.159Z,1024.12
2017-12-19T01:19:28.139Z,1024.18
2017-12-19T01:20:28.114Z,1024.20
2017-12-19T01:21:28.140Z,1024.28
2017-12-19T01:22:28.067Z,1024.27
2017-12-19T01:23:28.098Z,1024.29
2017-12-19T01:24:28.028Z,1024.32
2017-12-19T01:25:28.006Z,1024.32
2017-12-19T01:26:27.982Z,1024.30
2017-12-19T01:27:27.972Z,1024.32
2017-12-19T01:28:27.945Z,1024.35
2017-12-19T01:29:27.967Z,1024.36
2017-12-19T01:30:27.893Z,1024.40
2017-12-19T01:31:27.881Z,1024.42
2017-12-19T01:32:27.849Z,1024.42
2017-12-19T01:33:27.876Z,1024.44
2017-12-19T01:34:27.818Z,1024.46
2017-12-19T01:35:27.842Z,1024.50
2017-12-19T01:36:27.774Z,1024.49
2017-12-19T01:37:27.745Z,1024.45
2017-12-19T01:38:27.769Z,1024.51
2017-12-19T01:39:27.705Z,1024.51
2017-12-19T01:40:27.675Z,1024.50
2017-12-19T01:41:27.668Z,1024.50
2017-12-19T01:42:27.639Z,1024.56
2017-12-19T01:43:27.765Z,1024.52
2017-12-19T01:44:27.589Z,1024.50
2017-12-19T01:45:27.625Z,1024.47
2017-12-19T01:46:27.550Z,1024.47
2017-12-19T01:47:27.627Z,1024.40
2017-12-19T01:48:27.503Z,1024.42
2017-12-19T01:49:27.530Z,1024.42
2017-12-19T01:50:27.457Z,1024.48
2017-12-19T01:51:27.439Z,1024.48
2017-12-19T01:52:27.419Z,1024.53
2017-12-19T01:53:27.398Z,1024.53
2017-12-19T01:54:27.373Z,1024.54
2017-12-19T01:55:27.358Z,1024.53
2017-12-19T01:56:27.329Z,1024.56
2017-12-19T01:57:27.309Z,1024.57
2017-12-19T01:58:27.289Z,1024.54
2017-12-19T01:59:27.277Z,1024.54
2017-12-19T02:00:27.243Z,1024.52
2017-12-19T02:01:27.217Z,1024.46
2017-12-19T02:02:27.197Z,1024.52
2017-12-19T02:03:27.178Z,1024.54
2017-12-19T02:04:27.159Z,1024.49
2017-12-19T02:05:27.132Z,1024.51
2017-12-19T02:06:27.116Z,1024.47
2017-12-19T02:07:27.096Z,1024.48
2017-12-19T02:08:27.072Z,1024.51
2017-12-19T02:09:27.048Z,1024.48
2017-12-19T02:10:27.029Z,1024.45
2017-12-19T02:11:27.005Z,1024.49
2017-12-19T02:12:26.982Z,1024.44
2017-12-19T02:13:26.957Z,1024.47
2017-12-19T02:14:26.939Z,1024.49
2017-12-19T02:15:26.918Z,1024.52
2017-12-19T02:16:26.902Z,1024.52
2017-12-19T02:17:26.869Z,1024.54
2017-12-19T02:18:26.859Z,1024.50
2017-12-19T02:19:26.826Z,1024.56
2017-12-19T02:20:26.807Z,1024.55
2017-12-19T02:21:26.791Z,1024.52
2017-12-19T02:22:26.768Z,1024.59
2017-12-19T02:23:26.743Z,1024.56
2017-12-19T02:24:26.718Z,1024.55
2017-12-19T02:25:26.695Z,1024.58
2017-12-19T02:26:26.678Z,1024.56
2017-12-19T02:27:26.657Z,1024.53
2017-12-19T02:28:26.635Z,1024.54
2017-12-19T02:29:26.617Z,1024.48
2017-12-19T02:30:26.587Z,1024.49
2017-12-19T02:31:26.567Z,1024.49
2017-12-19T02:32:26.549Z,1024.46
2017-12-19T02:33:26.527Z,1024.45
2017-12-19T02:34:26.509Z,1024.46
2017-12-19T02:35:26.483Z,1024.49
2017-12-19T02:36:26.460Z,1024.50
2017-12-19T02:37:26.442Z,1024.52
2017-12-19T02:38:26.418Z,1024.58
2017-12-19T02:39:26.394Z,1024.60
2017-12-19T02:40:26.383Z,1024.60
2017-12-19T02:41:26.355Z,1024.54
2017-12-19T02:42:26.329Z,1024.51
2017-12-19T02:43:26.309Z,1024.47
2017-12-19T02:44:26.288Z,1024.49
2017-12-19T02:45:26.267Z,1024.47
2017-12-19T02:46:26.249Z,1024.44
2017-12-19T02:47:26.228Z,1024.47
2017-12-19T02:48:26.199Z,1024.47
2017-12-19T02:49:26.179Z,1024.47
2017-12-19T02:50:26.161Z,1024.44
2017-12-19T02:51:26.140Z,1024.41
2017-12-19T02:52:26.118Z,1024.39
2017-12-19T02:53:26.089Z,1024.40
2017-12-19T02:54:26.077Z,1024.38
2017-12-19T02:55:26.048Z,1024.33
2017-12-19T02:56:26.023Z,1024.32
2017-12-19T02:57:26.009Z,1024.30
2017-12-19T02:58:25.987Z,1024.29
2017-12-19T02:59:25.959Z,1024.28
2017-12-19T03:00:25.941Z,1024.32
2017-12-19T03:01:25.927Z,1024.26
2017-12-19T03:02:25.899Z,1024.27
2017-12-19T03:03:25.876Z,1024.25
2017-12-19T03:04:25.858Z,1024.25
2017-12-19T03:05:25.829Z,1024.31
2017-12-19T03:06:25.809Z,1024.35
2017-12-19T03:07:25.789Z,1024.36
2017-12-19T03:08:25.763Z,1024.30
2017-12-19T03:09:25.749Z,1024.31
2017-12-19T03:10:25.718Z,1024.27
2017-12-19T03:11:25.696Z,1024.25
2017-12-19T03:12:25.678Z,1024.28
2017-12-19T03:13:25.659Z,1024.29
2017-12-19T03:14:25.629Z,1024.31
2017-12-19T03:15:25.611Z,1024.29
2017-12-19T03:16:25.589Z,1024.27
2017-12-19T03:17:25.568Z,1024.31
2017-12-19T03:18:25.546Z,1024.28
2017-12-19T03:19:25.519Z,1024.29
2017-12-19T03:20:25.510Z,1024.30
2017-12-19T03:21:25.477Z,1024.30
2017-12-19T03:22:25.459Z,1024.31
2017-12-19T03:23:25.433Z,1024.28
2017-12-19T03:24:25.408Z,1024.26
2017-12-19T03:25:25.388Z,1024.34
2017-12-19T03:26:25.369Z,1024.27
2017-12-19T03:27:25.345Z,1024.28
2017-12-19T03:28:25.329Z,1024.26
2017-12-19T03:29:25.300Z,1024.32
2017-12-19T03:30:25.280Z,1024.33
2017-12-19T03:31:25.258Z,1024.34
2017-12-19T03:32:25.239Z,1024.32
2017-12-19T03:33:25.222Z,1024.28
2017-12-19T03:34:25.191Z,1024.32
2017-12-19T03:35:25.169Z,1024.30
2017-12-19T03:36:25.146Z,1024.27
2017-12-19T03:37:25.130Z,1024.23
2017-12-19T03:38:25.110Z,1024.31
2017-12-19T03:39:25.089Z,1024.34
2017-12-19T03:40:25.060Z,1024.37
2017-12-19T03:41:25.034Z,1024.35
2017-12-19T03:42:25.016Z,1024.36
2017-12-19T03:43:24.992Z,1024.34
2017-12-19T03:44:24.972Z,1024.37
2017-12-19T03:45:24.950Z,1024.37
2017-12-19T03:46:24.929Z,1024.35
2017-12-19T03:47:24.908Z,1024.34
2017-12-19T03:48:24.888Z,1024.39
2017-12-19T03:49:24.858Z,1024.39
2017-12-19T03:50:24.839Z,1024.39
2017-12-19T03:51:24.819Z,1024.40
2017-12-19T03:52:24.798Z,1024.36
2017-12-19T03:53:24.773Z,1024.32
2017-12-19T03:54:24.751Z,1024.31
2017-12-19T03:55:24.731Z,1024.33
2017-12-19T03:56:24.707Z,1024.36
2017-12-19T03:57:24.687Z,1024.36
2017-12-19T03:58:24.714Z,1024.32
2017-12-19T03:59:24.639Z,1024.32
2017-12-19T04:00:24.620Z,1024.37
2017-12-19T04:01:24.602Z,1024.33
2017-12-19T04:02:24.577Z,1024.41
2017-12-19T04:03:24.551Z,1024.41
2017-12-19T04:04:24.579Z,1024.38
2017-12-19T04:05:24.509Z,1024.40
2017-12-19T04:06:24.489Z,1024.40
2017-12-19T04:07:24.468Z,1024.39
2017-12-19T04:08:24.490Z,1024.34
2017-12-19T04:09:24.422Z,1024.38
2017-12-19T04:10:24.403Z,1024.39
2017-12-19T04:11:24.380Z,1024.37
2017-12-19T04:12:24.364Z,1024.39
2017-12-19T04:13:24.332Z,1024.41
2017-12-19T04:14:24.317Z,1024.35
2017-12-19T04:15:24.288Z,1024.41
2017-12-19T04:16:24.267Z,1024.42
2017-12-19T04:17:24.242Z,1024.43
2017-12-19T04:18:24.327Z,1024.41
2017-12-19T04:19:24.198Z,1024.40
2017-12-19T04:20:24.179Z,1024.38
2017-12-19T04:21:24.159Z,1024.38
2017-12-19T04:22:24.164Z,1024.34
2017-12-19T04:23:24.112Z,1024.34
2017-12-19T04:24:24.094Z,1024.34
2017-12-19T04:25:24.071Z,1024.34
2017-12-19T04:26:24.050Z,1024.33
2017-12-19T04:27:24.028Z,1024.39
2017-12-19T04:28:24.000Z,1024.43
2017-12-19T04:29:23.978Z,1024.46
2017-12-19T04:30:23.960Z,1024.43
2017-12-19T04:31:23.947Z,1024.43
2017-12-19T04:32:23.911Z,1024.42
2017-12-19T04:33:23.888Z,1024.45
2017-12-19T04:34:23.868Z,1024.46
2017-12-19T04:35:23.850Z,1024.41
2017-12-19T04:36:23.826Z,1024.43
2017-12-19T04:37:23.801Z,1024.45
2017-12-19T04:38:23.779Z,1024.48
2017-12-19T04:39:23.760Z,1024.51
2017-12-19T04:40:23.738Z,1024.50
2017-12-19T04:41:23.714Z,1024.46
2017-12-19T04:42:23.694Z,1024.52
2017-12-19T04:43:23.670Z,1024.52
2017-12-19T04:44:23.651Z,1024.52
2017-12-19T04:45:23.627Z,1024.55
2017-12-19T04:46:23.605Z,1024.58
2017-12-19T04:47:23.581Z,1024.60
2017-12-19T04:48:23.558Z,1024.61
2017-12-19T04:49:23.539Z,1024.65
2017-12-19T04:50:23.520Z,1024.66
2017-12-19T04:51:23.502Z,1024.67
2017-12-19T04:52:23.478Z,1024.75
2017-12-19T04:53:23.450Z,1024.76
2017-12-19T04:54:23.429Z,1024.74
2017-12-19T04:55:23.410Z,1024.75
2017-12-19T04:56:23.435Z,1024.73
2017-12-19T04:57:23.370Z,1024.72
2017-12-19T04:58:23.344Z,1024.75
2017-12-19T04:59:23.331Z,1024.72
2017-12-19T05:00:23.297Z,1024.72
2017-12-19T05:01:23.290Z,1024.74
2017-12-19T05:02:23.254Z,1024.74
2017-12-19T05:03:23.232Z,1024.76
2017-12-19T05:04:23.207Z,1024.77
2017-12-19T05:05:23.186Z,1024.79
2017-12-19T05:06:23.171Z,1024.82
2017-12-19T05:07:23.144Z,1024.83
2017-12-19T05:08:23.120Z,1024.83
2017-12-19T05:09:23.098Z,1024.85
2017-12-19T05:10:23.078Z,1024.85
2017-12-19T05:11:23.057Z,1024.87
2017-12-19T05:12:23.035Z,1024.85
2017-12-19T05:13:23.014Z,1024.89
2017-12-19T05:14:22.989Z,1024.88
2017-12-19T05:15:22.968Z,1024.88
2017-12-19T05:16:22.946Z,1024.89
2017-12-19T05:17:22.925Z,1024.87
2017-12-19T05:18:22.905Z,1024.88
2017-12-19T05:19:22.881Z,1024.88
2017-12-19T05:20:22.860Z,1024.83
2017-12-19T05:21:22.839Z,1024.86
2017-12-19T05:22:22.817Z,1024.91
2017-12-19T05:23:22.793Z,1024.92
2017-12-19T05:24:22.776Z,1024.96
2017-12-19T05:25:22.750Z,1024.96
2017-12-19T05:26:22.730Z,1024.97
2017-12-19T05:27:22.706Z,1025.02
2017-12-19T05:28:22.689Z,1025.05
2017-12-19T05:29:22.668Z,1025.07
2017-12-19T05:30:22.640Z,1025.11
2017-12-19T05:31:22.619Z,1025.12
2017-12-19T05:32:22.598Z,1025.14
2017-12-19T05:33:22.579Z,1025.14
2017-12-19T05:34:22.551Z,1025.13
2017-12-19T05:35:22.531Z,1025.10
2017-12-19T05:36:22.509Z,1025.10
2017-12-19T05:37:22.487Z,1025.13
2017-12-19T05:38:22.471Z,1025.14
2017-12-19T05:39:22.442Z,1025.15
2017-12-19T05:40:22.419Z,1025.08
2017-12-19T05:41:22.398Z,1025.15
2017-12-19T05:42:22.378Z,1025.16
2017-12-19T05:43:22.359Z,1025.16
2017-12-19T05:44:22.340Z,1025.19
2017-12-19T05:45:22.314Z,1025.23
2017-12-19T05:46:22.297Z,1025.21
2017-12-19T05:47:22.269Z,1025.20
2017-12-19T05:48:22.250Z,1025.16
2017-12-19T05:49:22.227Z,1025.17
2017-12-19T05:50:22.204Z,1025.17
2017-12-19T05:51:22.179Z,1025.18
2017-12-19T05:52:22.168Z,1025.15
2017-12-19T05:53:22.141Z,1025.16
2017-12-19T05:54:22.122Z,1025.20
2017-12-19T05:55:22.098Z,1025.19
2017-12-19T05:56:22.070Z,1025.24
2017-12-19T05:57:22.050Z,1025.20
2017-12-19T05:58:22.027Z,1025.20
2017-12-19T05:59:22.009Z,1025.27
2017-12-19T06:00:21.989Z,1025.23
2017-12-19T06:01:21.959Z,1025.25
2017-12-19T06:02:21.938Z,1025.28
2017-12-19T06:03:21.920Z,1025.31
2017-12-19T06:04:21.896Z,1025.34
2017-12-19T06:05:21.878Z,1025.36
2017-12-19T06:06:21.856Z,1025.38
2017-12-19T06:07:21.829Z,1025.38
2017-12-19T06:08:21.806Z,1025.38
2017-12-19T06:09:21.790Z,1025.37
2017-12-19T06:10:21.772Z,1025.39
2017-12-19T06:11:21.743Z,1025.34
2017-12-19T06:12:21.720Z,1025.42
2017-12-19T06:13:21.701Z,1025.43
2017-12-19T06:14:21.704Z,1025.46
2017-12-19T06:15:21.660Z,1025.48
2017-12-19T06:16:21.640Z,1025.52
2017-12-19T06:17:21.668Z,1025.54
2017-12-19T06:18:21.600Z,1025.55
2017-12-19T06:19:21.571Z,1025.55
2017-12-19T06:20:21.549Z,1025.56
2017-12-19T06:21:21.524Z,1025.57
2017-12-19T06:22:21.512Z,1025.56
2017-12-19T06:23:21.547Z,1025.58
2017-12-19T06:24:21.463Z,1025.57
2017-12-19T06:25:21.455Z,1025.64
2017-12-19T06:26:21.420Z,1025.64
2017-12-19T06:27:21.395Z,1025.62
2017-12-19T06:28:21.380Z,1025.63
2017-12-19T06:29:21.354Z,1025.63
2017-12-19T06:30:21.331Z,1025.59
2017-12-19T06:31:21.311Z,1025.61
2017-12-19T06:32:21.286Z,1025.60
2017-12-19T06:33:21.262Z,1025.61
2017-12-19T06:34:21.239Z,1025.62
2017-12-19T06:35:21.218Z,1025.64
2017-12-19T06:36:21.200Z,1025.62
2017-12-19T06:37:21.175Z,1025.56
2017-12-19T06:38:21.154Z,1025.57
2017-12-19T06:39:21.132Z,1025.60
2017-12-19T06:40:21.109Z,1025.60
2017-12-19T06:41:21.090Z,1025.60
2017-12-19T06:42:21.069Z,1025.59
2017-12-19T06:43:21.100Z,1025.64
2017-12-19T06:44:21.028Z,1025.70
2017-12-19T06:45:21.010Z,1025.63
2017-12-19T06:46:20.988Z,1025.64
2017-12-19T06:47:20.963Z,1025.63
2017-12-19T06:48:20.938Z,1025.68
2017-12-19T06:49:20.921Z,1025.65
2017-12-19T06:50:20.891Z,1025.65
2017-12-19T06:51:20.867Z,1025.69
2017-12-19T06:52:20.850Z,1025.69
2017-12-19T06:53:20.926Z,1025.67
2017-12-19T06:54:20.808Z,1025.68
2017-12-19T06:55:20.789Z,1025.68
2017-12-19T06:56:20.758Z,1025.69
2017-12-19T06:57:20.740Z,1025.72
2017-12-19T06:58:20.714Z,1025.74
2017-12-19T06:59:20.697Z,1025.74
2017-12-19T07:00:20.675Z,1025.75
2017-12-19T07:01:20.647Z,1025.74
2017-12-19T07:02:20.629Z,1025.72
2017-12-19T07:03:20.606Z,1025.74
2017-12-19T07:04:20.582Z,1025.75
2017-12-19T07:05:20.564Z,1025.72
2017-12-19T07:06:20.540Z,1025.70
2017-12-19T07:07:20.522Z,1025.71
2017-12-19T07:08:20.512Z,1025.67
2017-12-19T07:09:20.481Z,1025.68
2017-12-19T07:10:20.458Z,1025.69
2017-12-19T07:11:20.433Z,1025.67
2017-12-19T07:12:20.408Z,1025.62
2017-12-19T07:13:20.386Z,1025.62
2017-12-19T07:14:20.369Z,1025.61
2017-12-19T07:15:20.346Z,1025.58
2017-12-19T07:16:20.318Z,1025.62
2017-12-19T07:17:20.295Z,1025.58
2017-12-19T07:18:20.278Z,1025.61
2017-12-19T07:19:20.259Z,1025.63
2017-12-19T07:20:20.238Z,1025.60
2017-12-19T07:21:20.212Z,1025.61
2017-12-19T07:22:20.186Z,1025.62
2017-12-19T07:23:20.163Z,1025.69
2017-12-19T07:24:20.145Z,1025.66
2017-12-19T07:25:20.122Z,1025.59
2017-12-19T07:26:20.151Z,1025.56
2017-12-19T07:27:20.078Z,1025.53
2017-12-19T07:28:20.058Z,1025.55
2017-12-19T07:29:20.037Z,1025.57
2017-12-19T07:30:20.011Z,1025.56
2017-12-19T07:31:19.996Z,1025.60
2017-12-19T07:32:19.968Z,1025.62
2017-12-19T07:33:19.944Z,1025.56
2017-12-19T07:34:19.928Z,1025.59
2017-12-19T07:35:19.902Z,1025.60
2017-12-19T07:36:19.878Z,1025.63
2017-12-19T07:37:19.857Z,1025.64
2017-12-19T07:38:19.834Z,1025.62
2017-12-19T07:39:19.817Z,1025.66
2017-12-19T07:40:19.795Z,1025.68
2017-12-19T07:41:19.770Z,1025.62
2017-12-19T07:42:19.746Z,1025.66
2017-12-19T07:43:19.724Z,1025.66
2017-12-19T07:44:19.701Z,1025.66
2017-12-19T07:45:19.679Z,1025.65
2017-12-19T07:46:19.658Z,1025.64
2017-12-19T07:47:19.710Z,1025.69
2017-12-19T07:48:19.614Z,1025.70
2017-12-19T07:49:19.598Z,1025.70
2017-12-19T07:50:19.574Z,1025.69
2017-12-19T07:51:19.550Z,1025.70
2017-12-19T07:52:19.533Z,1025.74
2017-12-19T07:53:19.507Z,1025.79
2017-12-19T07:54:19.480Z,1025.82
2017-12-19T07:55:19.469Z,1025.79
2017-12-19T07:56:19.435Z,1025.81
2017-12-19T07:57:19.422Z,1025.83
2017-12-19T07:58:19.399Z,1025.83
2017-12-19T07:59:19.391Z,1025.82
2017-12-19T08:00:19.349Z,1025.83
2017-12-19T08:01:19.328Z,1025.86
2017-12-19T08:02:19.323Z,1025.86
2017-12-19T08:03:19.295Z,1025.87
2017-12-19T08:04:19.270Z,1025.88
2017-12-19T08:05:19.242Z,1025.89
2017-12-19T08:06:19.246Z,1025.88
2017-12-19T08:07:19.203Z,1025.89
2017-12-19T08:08:19.177Z,1025.91
2017-12-19T08:09:19.156Z,1025.86
2017-12-19T08:10:19.133Z,1025.92
2017-12-19T08:11:19.116Z,1025.92
2017-12-19T08:12:19.089Z,1025.92
2017-12-19T08:13:19.077Z,1025.92
2017-12-19T08:14:19.079Z,1025.92
2017-12-19T08:15:19.027Z,1025.95
2017-12-19T08:16:19.006Z,1025.91
2017-12-19T08:17:18.985Z,1025.89
2017-12-19T08:18:18.961Z,1025.92
2017-12-19T08:19:18.940Z,1025.92
2017-12-19T08:20:18.916Z,1025.93
2017-12-19T08:21:18.890Z,1025.97
2017-12-19T08:22:18.869Z,1025.96
2017-12-19T08:23:18.849Z,1025.94
2017-12-19T08:24:18.826Z,1025.95
2017-12-19T08:25:18.804Z,1025.94
2017-12-19T08:26:18.782Z,1025.92
2017-12-19T08:27:18.760Z,1025.93
2017-12-19T08:28:18.749Z,1025.93
2017-12-19T08:29:18.720Z,1025.97
2017-12-19T08:30:18.699Z,1025.99
2017-12-19T08:31:18.677Z,1025.97
2017-12-19T08:32:18.660Z,1026.02
2017-12-19T08:33:18.631Z,1026.03
2017-12-19T08:34:18.609Z,1026.02
2017-12-19T08:35:18.589Z,1026.03
2017-12-19T08:36:18.570Z,1026.06
2017-12-19T08:37:18.542Z,1026.07
2017-12-19T08:38:18.519Z,1026.05
2017-12-19T08:39:18.499Z,1026.10
2017-12-19T08:40:18.478Z,1026.07
2017-12-19T08:41:18.465Z,1026.17
2017-12-19T08:42:18.444Z,1026.13
2017-12-19T08:43:18.416Z,1026.16
2017-12-19T08:44:18.389Z,1026.17
2017-12-19T08:45:18.368Z,1026.17
2017-12-19T08:46:18.349Z,1026.14
2017-12-19T08:47:18.326Z,1026.18
2017-12-19T08:48:18.307Z,1026.13
2017-12-19T08:49:18.278Z,1026.17
2017-12-19T08:50:18.264Z,1026.16
2017-12-19T08:51:18.243Z,1026.17
2017-12-19T08:52:18.222Z,1026.21
2017-12-19T08:53:18.199Z,1026.19
2017-12-19T08:54:18.179Z,1026.21
2017-12-19T08:55:18.160Z,1026.20
2017-12-19T08:56:18.134Z,1026.23
2017-12-19T08:57:18.111Z,1026.22
2017-12-19T08:58:18.087Z,1026.23
2017-12-19T08:59:18.072Z,1026.25
2017-12-19T09:00:18.046Z,1026.25
2017-12-19T09:01:18.030Z,1026.25
2017-12-19T09:02:18.035Z,1026.26
2017-12-19T09:03:17.981Z,1026.24
2017-12-19T09:04:17.957Z,1026.28
2017-12-19T09:05:17.960Z,1026.29
2017-12-19T09:06:17.917Z,1026.27
2017-12-19T09:07:17.904Z,1026.27
2017-12-19T09:08:17.899Z,1026.29
2017-12-19T09:09:17.881Z,1026.30
2017-12-19T09:10:17.830Z,1026.28
2017-12-19T09:11:17.826Z,1026.31
2017-12-19T09:12:17.793Z,1026.29
2017-12-19T09:13:17.772Z,1026.26
2017-12-19T09:14:17.751Z,1026.27
2017-12-19T09:15:17.732Z,1026.32
2017-12-19T09:16:17.702Z,1026.32
2017-12-19T09:17:17.686Z,1026.35
2017-12-19T09:18:17.659Z,1026.31
2017-12-19T09:19:17.645Z,1026.28
2017-12-19T09:20:17.624Z,1026.32
2017-12-19T09:21:17.605Z,1026.35
2017-12-19T09:22:17.598Z,1026.32
2017-12-19T09:23:17.554Z,1026.31
2017-12-19T09:24:17.531Z,1026.33
2017-12-19T09:25:17.519Z,1026.31
2017-12-19T09:26:17.491Z,1026.31
2017-12-19T09:27:17.467Z,1026.31
2017-12-19T09:28:17.444Z,1026.35
2017-12-19T09:29:17.424Z,1026.39
2017-12-19T09:30:17.409Z,1026.39
2017-12-19T09:31:17.399Z,1026.44
2017-12-19T09:32:17.370Z,1026.40
2017-12-19T09:33:17.342Z,1026.41
2017-12-19T09:34:17.338Z,1026.45
2017-12-19T09:35:17.297Z,1026.47
2017-12-19T09:36:17.286Z,1026.43
2017-12-19T09:37:17.256Z,1026.43
2017-12-19T09:38:17.238Z,1026.41
2017-12-19T09:39:17.216Z,1026.44
2017-12-19T09:40:17.192Z,1026.46
2017-12-19T09:41:17.178Z,1026.44
2017-12-19T09:42:17.150Z,1026.45
2017-12-19T09:43:17.127Z,1026.42
2017-12-19T09:44:17.114Z,1026.47
2017-12-19T09:45:17.090Z,1026.49
2017-12-19T09:46:17.063Z,1026.50
2017-12-19T09:47:17.050Z,1026.49
2017-12-19T09:48:17.019Z,1026.49
2017-12-19T09:49:16.999Z,1026.50
2017-12-19T09:50:16.983Z,1026.47
2017-12-19T09:51:16.961Z,1026.48
2017-12-19T09:52:16.934Z,1026.51
2017-12-19T09:53:16.917Z,1026.56
2017-12-19T09:54:16.894Z,1026.54
2017-12-19T09:55:16.874Z,1026.56
2017-12-19T09:56:16.855Z,1026.59
2017-12-19T09:57:16.831Z,1026.58
2017-12-19T09:58:16.811Z,1026.55
2017-12-19T09:59:16.787Z,1026.60
2017-12-19T10:00:16.771Z,1026.60
2017-12-19T10:01:16.753Z,1026.59
2017-12-19T10:02:16.726Z,1026.61
2017-12-19T10:03:16.714Z,1026.60
2017-12-19T10:04:16.692Z,1026.58
2017-12-19T10:05:16.665Z,1026.58
2017-12-19T10:06:16.649Z,1026.57
2017-12-19T10:07:16.624Z,1026.55
2017-12-19T10:08:16.606Z,1026.61
2017-12-19T10:09:16.587Z,1026.60
2017-12-19T10:10:16.563Z,1026.62
2017-12-19T10:11:16.563Z,1026.61
2017-12-19T10:12:16.540Z,1026.62
2017-12-19T10:13:16.492Z,1026.60
2017-12-19T10:14:16.481Z,1026.59
2017-12-19T10:15:16.460Z,1026.59
2017-12-19T10:16:17.266Z,1026.63
2017-12-19T10:17:16.464Z,1026.61
2017-12-19T10:18:16.391Z,1026.61
2017-12-19T10:19:16.369Z,1026.62
2017-12-19T10:20:16.352Z,1026.62
2017-12-19T10:21:16.330Z,1026.62
2017-12-19T10:22:16.360Z,1026.63
2017-12-19T10:23:16.294Z,1026.62
2017-12-19T10:24:16.326Z,1026.63
2017-12-19T10:25:16.245Z,1026.59
2017-12-19T10:26:16.231Z,1026.64
2017-12-19T10:27:16.217Z,1026.62
2017-12-19T10:28:16.194Z,1026.62
2017-12-19T10:29:16.161Z,1026.58
2017-12-19T10:30:16.238Z,1026.56
2017-12-19T10:31:16.119Z,1026.55
2017-12-19T10:32:16.150Z,1026.56
2017-12-19T10:33:16.077Z,1026.53
2017-12-19T10:34:16.156Z,1026.53
2017-12-19T10:35:16.042Z,1026.51
2017-12-19T10:36:16.068Z,1026.54
2017-12-19T10:37:15.992Z,1026.51
2017-12-19T10:38:16.001Z,1026.51
2017-12-19T10:39:15.962Z,1026.53
2017-12-19T10:40:15.928Z,1026.51
2017-12-19T10:41:15.911Z,1026.52
2017-12-19T10:42:15.896Z,1026.52
2017-12-19T10:43:15.866Z,1026.51
2017-12-19T10:44:15.947Z,1026.50
2017-12-19T10:45:15.824Z,1026.47
2017-12-19T10:46:15.861Z,1026.46
2017-12-19T10:47:15.846Z,1026.47
2017-12-19T10:48:15.822Z,1026.50
2017-12-19T10:49:15.740Z,1026.54
2017-12-19T10:50:15.729Z,1026.48
2017-12-19T10:51:15.707Z,1026.52
2017-12-19T10:52:15.733Z,1026.55
2017-12-19T10:53:15.662Z,1026.55
2017-12-19T10:54:15.694Z,1026.55
2017-12-19T10:55:15.620Z,1026.58
2017-12-19T10:56:15.646Z,1026.56
2017-12-19T10:57:15.582Z,1026.60
2017-12-19T10:58:15.557Z,1026.61
2017-12-19T10:59:15.541Z,1026.65
2017-12-19T11:00:15.520Z,1026.63
2017-12-19T11:01:15.501Z,1026.65
2017-12-19T11:02:15.469Z,1026.60
2017-12-19T11:03:15.450Z,1026.63
2017-12-19T11:04:15.430Z,1026.62
2017-12-19T11:05:15.410Z,1026.61
2017-12-19T11:06:15.390Z,1026.61
2017-12-19T11:07:15.370Z,1026.60
2017-12-19T11:08:15.347Z,1026.55
2017-12-19T11:09:15.329Z,1026.61
2017-12-19T11:10:15.312Z,1026.56
2017-12-19T11:11:15.287Z,1026.58
2017-12-19T11:12:15.267Z,1026.54
2017-12-19T11:13:15.249Z,1026.52
2017-12-19T11:14:15.226Z,1026.49
2017-12-19T11:15:15.205Z,1026.55
2017-12-19T11:16:15.182Z,1026.55
2017-12-19T11:17:15.170Z,1026.51
2017-12-19T11:18:15.140Z,1026.54
2017-12-19T11:19:15.131Z,1026.50
2017-12-19T11:20:15.100Z,1026.52
2017-12-19T11:21:15.082Z,1026.49
2017-12-19T11:22:15.060Z,1026.52
2017-12-19T11:23:15.040Z,1026.46
2017-12-19T11:24:15.030Z,1026.44
2017-12-19T11:25:15.002Z,1026.44
2017-12-19T11:26:14.983Z,1026.47
2017-12-19T11:27:14.960Z,1026.43
2017-12-19T11:28:14.936Z,1026.45
2017-12-19T11:29:14.919Z,1026.41
2017-12-19T11:30:14.895Z,1026.40
2017-12-19T11:31:14.876Z,1026.43
2017-12-19T11:32:14.855Z,1026.40
2017-12-19T11:33:14.832Z,1026.42
2017-12-19T11:34:14.817Z,1026.43
2017-12-19T11:35:14.792Z,1026.45
2017-12-19T11:36:14.772Z,1026.41
2017-12-19T11:37:14.750Z,1026.41
2017-12-19T11:38:14.734Z,1026.39
2017-12-19T11:39:14.708Z,1026.37
2017-12-19T11:40:14.694Z,1026.34
2017-12-19T11:41:14.670Z,1026.38
2017-12-19T11:42:14.651Z,1026.33
2017-12-19T11:43:14.630Z,1026.31
2017-12-19T11:44:14.643Z,1026.29
2017-12-19T11:45:14.587Z,1026.29
2017-12-19T11:46:14.569Z,1026.30
2017-12-19T11:47:14.549Z,1026.30
2017-12-19T11:48:14.533Z,1026.30
2017-12-19T11:49:14.507Z,1026.27
2017-12-19T11:50:14.494Z,1026.28
2017-12-19T11:51:14.472Z,1026.28
2017-12-19T11:52:14.463Z,1026.27
2017-12-19T11:53:14.432Z,1026.23
2017-12-19T11:54:14.416Z,1026.24
2017-12-19T11:55:14.392Z,1026.25
2017-12-19T11:56:14.496Z,1026.20
2017-12-19T11:57:14.346Z,1026.21
2017-12-19T11:58:14.331Z,1026.23
2017-12-19T11:59:14.311Z,1026.19
2017-12-19T12:00:14.284Z,1026.20
2017-12-19T12:01:14.268Z,1026.24
2017-12-19T12:02:14.253Z,1026.18
2017-12-19T12:03:14.226Z,1026.22
2017-12-19T12:04:14.204Z,1026.22
2017-12-19T12:05:14.186Z,1026.24